createdAt,value
2022-10-10T05:29:59.219Z,15.80
2022-10-10T05:35:40.191Z,15.80
2022-10-10T06:57:35.496Z,15.80
2022-10-10T07:02:40.909Z,15.70
2022-10-10T07:07:46.284Z,15.70
2022-10-10T07:12:49.558Z,15.60
2022-10-10T07:18:14.172Z,15.50
2022-10-10T07:23:49.142Z,15.40
2022-10-10T07:29:35.799Z,15.30
2022-10-10T07:40:52.957Z,15.20
2022-10-10T07:46:42.138Z,15.20
2022-10-10T07:52:01.662Z,15.10
2022-10-10T07:58:29.790Z,14.90
2022-10-10T08:15:41.115Z,14.70
2022-10-10T08:21:11.398Z,14.60
2022-10-10T08:27:21.314Z,14.40
2022-10-10T09:08:35.873Z,14.40
2022-10-10T10:46:38.404Z,14.80
2022-10-10T10:52:15.552Z,14.90
2022-10-10T11:05:18.330Z,14.90
2022-10-10T11:40:55.893Z,14.70
2022-10-10T11:52:41.915Z,14.80
2022-10-10T12:04:02.167Z,15.00
2022-10-10T12:09:20.790Z,15.00
2022-10-10T12:15:17.523Z,15.00
2022-10-10T12:20:36.534Z,15.10
2022-10-10T12:26:00.305Z,15.30
2022-10-10T12:31:16.456Z,15.70
2022-10-10T12:36:24.604Z,15.90
2022-10-10T12:42:00.357Z,15.90
2022-10-10T12:48:05.137Z,15.60
2022-10-10T12:53:25.544Z,15.50
2022-10-10T13:04:06.532Z,15.20
2022-10-10T13:09:35.133Z,15.10
2022-10-10T13:15:16.080Z,15.10
2022-10-10T13:20:45.554Z,15.20
2022-10-10T13:26:03.433Z,15.30
2022-10-10T13:31:13.958Z,15.20
2022-10-10T13:36:22.617Z,15.30
2022-10-10T13:41:27.272Z,15.10
2022-10-10T13:46:36.265Z,15.30
2022-10-10T13:51:47.958Z,15.20
2022-10-10T13:56:51.800Z,15.20
2022-10-10T14:02:01.765Z,15.00
2022-10-10T14:07:13.153Z,15.10
2022-10-10T14:12:25.993Z,15.10
2022-10-10T14:17:32.004Z,15.10
2022-10-10T14:22:34.351Z,15.20
2022-10-10T14:27:37.343Z,15.30
2022-10-10T14:32:40.465Z,15.30
2022-10-10T14:37:49.912Z,15.20
2022-10-10T14:42:53.105Z,15.30
2022-10-10T14:47:55.570Z,15.40
2022-10-10T14:52:57.792Z,15.30
2022-10-10T14:57:59.948Z,15.20
2022-10-10T15:03:02.625Z,15.30
2022-10-10T15:08:05.027Z,15.20
2022-10-10T15:13:10.029Z,15.20
2022-10-10T15:18:40.877Z,15.20
2022-10-10T15:23:38.946Z,15.20
2022-10-10T15:28:41.130Z,15.20
2022-10-10T15:33:47.225Z,15.30
2022-10-10T15:38:49.545Z,15.30
2022-10-10T15:43:56.488Z,15.20
2022-10-10T15:49:01.238Z,15.30
2022-10-10T15:54:03.884Z,15.10
2022-10-10T15:59:09.530Z,15.00
2022-10-10T16:04:15.813Z,14.90
2022-10-10T16:09:28.069Z,14.80
2022-10-10T16:14:31.587Z,14.80
2022-10-10T16:19:33.799Z,14.80
2022-10-10T16:24:37.594Z,14.80
2022-10-10T16:29:39.869Z,14.80
2022-10-10T16:34:43.761Z,14.80
2022-10-10T16:39:56.735Z,14.80
2022-10-10T16:45:00.634Z,14.80
2022-10-10T16:50:04.602Z,14.80
2022-10-10T16:55:08.382Z,14.80
2022-10-10T17:00:11.709Z,14.70
2022-10-10T17:05:16.338Z,14.60
2022-10-10T17:10:21.422Z,14.60
2022-10-10T17:15:24.516Z,14.50
2022-10-10T17:20:26.832Z,14.50
2022-10-10T17:25:31.546Z,14.40
2022-10-10T17:30:33.861Z,14.40
2022-10-10T17:35:41.842Z,14.30
2022-10-10T17:40:57.441Z,14.10
2022-10-10T17:46:33.254Z,13.90
2022-10-10T17:51:38.508Z,13.70
2022-10-10T17:56:41.149Z,13.60
2022-10-10T18:01:44.556Z,13.60
2022-10-10T18:06:48.543Z,13.50
2022-10-10T18:11:53.900Z,13.40
2022-10-10T18:16:56.861Z,13.30
2022-10-10T18:22:01.439Z,13.30
2022-10-10T18:27:04.939Z,13.20
2022-10-10T18:32:08.285Z,13.10
2022-10-10T18:37:11.317Z,13.00
2022-10-10T18:42:18.492Z,12.80
2022-10-10T18:47:23.818Z,12.70
2022-10-10T18:52:29.094Z,12.50
2022-10-10T18:57:31.573Z,12.40
2022-10-10T19:02:35.659Z,12.30
2022-10-10T19:07:38.026Z,12.20
2022-10-10T19:12:45.130Z,12.10
2022-10-10T19:23:41.986Z,11.80
2022-10-10T19:28:47.054Z,11.70
2022-10-10T19:33:58.714Z,11.50
2022-10-10T19:39:10.435Z,11.40
2022-10-10T19:44:16.367Z,11.20
2022-10-10T19:49:18.735Z,11.20
2022-10-10T19:54:21.260Z,11.10
2022-10-10T19:59:28.198Z,11.00
2022-10-10T20:04:31.955Z,10.90
2022-10-10T20:09:36.516Z,10.80
2022-10-10T20:14:39.415Z,10.70
2022-10-10T20:19:44.053Z,10.50
2022-10-10T20:24:47.747Z,10.40
2022-10-10T20:29:50.112Z,10.30
2022-10-10T20:34:57.939Z,10.30
2022-10-10T20:40:00.629Z,10.20
2022-10-10T20:45:11.213Z,10.10
2022-10-10T20:50:18.039Z,9.90
2022-10-10T20:55:20.923Z,9.90
2022-10-10T21:00:24.259Z,9.80
2022-10-10T21:05:26.671Z,9.80
2022-10-10T21:10:30.187Z,9.70
2022-10-10T21:15:32.491Z,9.70
2022-10-10T21:20:34.803Z,9.60
2022-10-10T21:25:40.763Z,9.50
2022-10-10T21:30:51.062Z,9.50
2022-10-10T21:35:54.465Z,9.30
2022-10-10T21:40:56.820Z,9.30
2022-10-10T21:46:04.319Z,9.20
2022-10-10T21:51:07.142Z,9.30
2022-10-10T21:56:11.185Z,9.20
2022-10-10T22:01:21.993Z,9.00
2022-10-10T22:06:25.360Z,8.90
2022-10-10T22:11:31.309Z,8.90
2022-10-10T22:16:34.351Z,8.80
2022-10-10T22:21:36.673Z,8.80
2022-10-10T22:26:38.959Z,8.70
2022-10-10T22:31:41.380Z,8.70
2022-10-10T22:36:43.715Z,8.50
2022-10-10T22:41:46.327Z,8.50
2022-10-10T22:46:48.888Z,8.40
2022-10-10T22:51:52.250Z,8.40
2022-10-10T22:56:59.349Z,8.30
2022-10-10T23:02:03.401Z,8.20
2022-10-10T23:07:08.569Z,8.20
2022-10-10T23:12:18.079Z,8.20
2022-10-10T23:17:26.504Z,8.10
2022-10-10T23:22:30.423Z,8.00
2022-10-10T23:27:34.661Z,8.00
2022-10-10T23:32:51.326Z,8.00
2022-10-10T23:38:01.617Z,7.90
2022-10-10T23:43:07.651Z,7.80
2022-10-10T23:48:10.419Z,7.80
2022-10-10T23:53:13.354Z,7.70
2022-10-10T23:58:33.935Z,7.70
